Time;durP1;ratioP1;P1;durP2;ratioP2;P2;SDS_P1;SDS_P2;PMS_P1;PMS_P2;Temp;Humidity;BMP_temperature;BMP_pressure;BME280_temperature;BME280_humidity;BME280_pressure;Samples;Min_cycle;Max_cycle;Signal;HPM_P1;HPM_P2
2021/07/23 00:01:01;;;;;;;;;13.50;13.50;;;;;25.61;42.69;101071.16;5026692;28;45513;-79
2021/07/23 00:03:26;;;;;;;;;14.50;13.00;;;;;25.59;42.75;101069.72;5026280;28;45616;-78
2021/07/23 00:05:52;;;;;;;;;13.50;12.50;;;;;25.55;43.25;101063.03;5027191;28;45488;-80
2021/07/23 00:08:17;;;;;;;;;14.50;13.00;;;;;25.53;43.42;101059.72;5025161;28;45660;-80
2021/07/23 00:10:43;;;;;;;;;11.75;10.75;;;;;25.44;43.39;101040.22;5026558;28;45532;-80
2021/07/23 00:16:30;;;;;;;;;15.50;13.50;;;;;25.30;43.50;101033.13;5021578;28;46150;-78
2021/07/23 00:18:55;;;;;;;;;16.00;14.00;;;;;25.32;43.48;101047.97;5017648;28;45678;-78
2021/07/23 00:21:22;;;;;;;;;12.00;11.75;;;;;25.30;43.47;101041.16;5021765;28;45842;-81
2021/07/23 00:23:47;;;;;;;;;14.00;13.25;;;;;25.25;43.75;101038.25;5027477;28;45745;-77
2021/07/23 00:26:13;;;;;;;;;13.50;11.25;;;;;25.22;43.88;101035.94;5028206;28;45524;-79
2021/07/23 00:32:00;;;;;;;;;12.75;11.50;;;;;25.16;43.94;101042.91;5017414;28;45615;-80
2021/07/23 00:34:26;;;;;;;;;13.50;13.00;;;;;25.11;44.08;101031.91;5017095;28;45494;-78
2021/07/23 00:36:51;;;;;;;;;13.25;11.25;;;;;25.12;44.10;101033.59;5015933;28;45803;-79
2021/07/23 00:39:16;;;;;;;;;15.75;14.25;;;;;25.05;44.87;101013.91;5014186;28;47209;-79
2021/07/23 00:41:42;;;;;;;;;14.00;12.25;;;;;25.05;43.87;101028.16;5014205;28;45541;-78
2021/07/23 00:44:07;;;;;;;;;12.25;10.50;;;;;24.94;44.41;101015.25;5016201;28;45585;-82
2021/07/23 00:46:33;;;;;;;;;13.50;12.25;;;;;24.98;44.85;101021.09;5016013;28;46342;-80
2021/07/23 00:48:59;;;;;;;;;12.00;12.00;;;;;24.94;45.19;101022.50;5015142;28;46087;-81
2021/07/23 00:51:25;;;;;;;;;13.50;12.50;;;;;24.95;44.93;101035.69;5015050;28;45827;-77
2021/07/23 00:53:51;;;;;;;;;13.00;12.25;;;;;24.75;45.17;101007.84;5015195;28;45698;-77
2021/07/23 00:56:17;;;;;;;;;12.25;10.50;;;;;24.76;44.83;101011.38;5014877;28;46369;-80
2021/07/23 01:02:04;;;;;;;;;11.25;11.00;;;;;24.73;45.25;101017.91;5003750;28;46401;-80
2021/07/23 01:04:31;;;;;;;;;13.75;13.25;;;;;24.59;45.86;101000.91;5015224;28;45603;-82
2021/07/23 01:06:57;;;;;;;;;14.25;11.75;;;;;24.63;45.59;101006.69;5014978;28;45823;-78
2021/07/23 01:09:23;;;;;;;;;15.50;14.25;;;;;24.61;45.36;101006.91;5014383;28;47128;-81
2021/07/23 01:11:49;;;;;;;;;14.75;14.25;;;;;24.57;45.98;101002.09;5014633;28;45578;-78
2021/07/23 01:17:37;;;;;;;;;11.25;9.25;;;;;24.51;46.21;101005.53;5015989;28;45576;-80
2021/07/23 01:20:29;;;;;;;;;13.25;13.00;;;;;24.45;46.60;101000.94;5016808;28;46431;-83
2021/07/23 01:22:58;;;;;;;;;12.00;12.00;;;;;24.32;46.36;100990.06;5018031;28;45540;-83
2021/07/23 01:25:24;;;;;;;;;13.25;12.50;;;;;24.37;46.69;101006.41;5022278;28;45568;-81
2021/07/23 01:27:51;;;;;;;;;13.00;12.00;;;;;24.28;46.43;100989.63;5021239;28;46572;-82
2021/07/23 01:30:17;;;;;;;;;12.00;12.00;;;;;24.30;46.47;101000.13;5016442;28;46010;-82
2021/07/23 01:32:43;;;;;;;;;13.75;12.75;;;;;24.27;46.73;101004.03;5015437;28;45780;-80
2021/07/23 01:35:10;;;;;;;;;14.25;12.25;;;;;24.20;46.84;100995.91;5015876;28;45703;-84
2021/07/23 01:37:36;;;;;;;;;13.00;12.25;;;;;24.16;46.80;100999.13;5015250;28;47786;-82
2021/07/23 01:40:03;;;;;;;;;14.50;13.00;;;;;24.10;47.05;100992.69;5015150;28;46025;-82
2021/07/23 01:42:30;;;;;;;;;14.50;14.50;;;;;24.03;46.82;100983.72;5015692;28;45714;-83
2021/07/23 01:44:55;;;;;;;;;13.50;12.75;;;;;24.00;47.01;100994.00;5016405;28;45682;-83
2021/07/23 01:47:21;;;;;;;;;12.75;11.00;;;;;23.80;47.14;100961.63;5016628;28;45734;-79
2021/07/23 01:49:47;;;;;;;;;13.25;12.50;;;;;23.93;46.89;100988.53;5016239;28;46184;-76
2021/07/23 01:52:13;;;;;;;;;15.50;15.00;;;;;23.90;47.39;100977.41;5014962;28;45657;-79
2021/07/23 01:54:38;;;;;;;;;12.75;12.25;;;;;23.71;47.52;100950.19;5015140;28;45820;-81
2021/07/23 01:57:04;;;;;;;;;12.00;12.00;;;;;23.91;47.82;100984.41;5014590;28;45563;-79
2021/07/23 02:02:51;;;;;;;;;14.50;14.25;;;;;23.84;47.74;100982.47;5006195;28;45667;-82
2021/07/23 02:05:17;;;;;;;;;16.00;14.75;;;;;23.81;47.59;100980.16;5014768;28;45686;-80
2021/07/23 02:07:42;;;;;;;;;16.75;14.00;;;;;23.76;48.12;100979.88;5014487;28;46782;-81
2021/07/23 02:10:08;;;;;;;;;15.25;14.25;;;;;23.66;47.63;100974.00;5014833;28;45698;-81
2021/07/23 02:12:34;;;;;;;;;14.25;13.25;;;;;23.59;48.02;100966.91;5014754;28;45776;-80
2021/07/23 02:15:00;;;;;;;;;15.00;14.75;;;;;23.68;48.08;100988.03;5014884;28;45609;-80
2021/07/23 02:17:25;;;;;;;;;16.50;13.50;;;;;23.64;48.14;100985.91;5014620;28;46134;-81
2021/07/23 02:19:51;;;;;;;;;14.25;14.25;;;;;23.61;48.58;100971.03;5014376;28;46722;-82
2021/07/23 02:22:17;;;;;;;;;15.25;14.00;;;;;23.62;48.22;100978.06;5015949;28;45620;-77
2021/07/23 02:24:43;;;;;;;;;15.00;15.00;;;;;23.58;47.94;100975.94;5018283;28;45506;-78
2021/07/23 02:27:11;;;;;;;;;14.75;14.00;;;;;23.47;49.39;100963.03;5017346;28;47599;-76
2021/07/23 02:32:59;;;;;;;;;15.00;13.50;;;;;23.46;48.82;100970.22;5023143;28;45545;-79
2021/07/23 02:35:24;;;;;;;;;16.25;13.50;;;;;23.43;48.16;100976.72;5022006;28;45667;-76
2021/07/23 02:37:50;;;;;;;;;14.25;14.25;;;;;23.42;48.15;100972.41;5018510;28;46299;-77
2021/07/23 02:40:15;;;;;;;;;15.50;13.75;;;;;23.34;48.96;100952.91;5017402;28;46206;-82
2021/07/23 02:42:41;;;;;;;;;14.75;14.25;;;;;23.38;48.66;100971.09;5017799;28;45551;-79
2021/07/23 02:48:28;;;;;;;;;13.00;12.50;;;;;23.31;48.76;100962.16;5016923;28;45599;-81
2021/07/23 02:50:54;;;;;;;;;15.25;14.25;;;;;23.33;49.27;100965.47;5016863;28;46130;-81
2021/07/23 02:53:19;;;;;;;;;17.25;15.00;;;;;23.33;49.63;100959.28;5017553;28;45718;-78
2021/07/23 02:55:45;;;;;;;;;15.25;14.00;;;;;23.29;49.47;100953.47;5017492;28;45697;-78
2021/07/23 02:58:11;;;;;;;;;15.00;14.00;;;;;23.11;49.11;100928.91;5017085;28;45740;-79
2021/07/23 03:00:36;;;;;;;;;15.75;13.25;;;;;23.25;49.82;100962.88;5016865;28;45706;-80
2021/07/23 03:03:04;;;;;;;;;17.00;15.50;;;;;23.22;49.50;100957.88;5016391;28;45449;-79
2021/07/23 03:05:29;;;;;;;;;18.00;15.00;;;;;23.18;49.78;100959.28;5017204;28;45630;-78
2021/07/23 03:07:55;;;;;;;;;14.50;14.00;;;;;23.15;49.63;100953.47;5017111;28;46136;-79
2021/07/23 03:10:20;;;;;;;;;18.25;15.00;;;;;23.12;49.34;100940.44;5016920;28;45929;-77
2021/07/23 03:12:46;;;;;;;;;18.25;17.50;;;;;23.15;49.50;100948.13;5016880;28;45677;-76
2021/07/23 03:18:33;;;;;;;;;15.50;15.50;;;;;23.17;49.19;100954.94;5016647;28;46175;-76
2021/07/23 03:20:58;;;;;;;;;19.25;16.00;;;;;23.18;49.73;100959.28;5016362;28;47057;-80
2021/07/23 03:23:24;;;;;;;;;17.00;15.25;;;;;23.14;49.53;100949.13;5016503;28;45658;-80
2021/07/23 03:25:49;;;;;;;;;15.75;13.75;;;;;23.13;49.80;100940.28;4998890;28;45705;-77
2021/07/23 03:28:15;;;;;;;;;17.75;17.25;;;;;23.14;50.11;100938.44;5016845;28;46184;-76
2021/07/23 03:30:40;;;;;;;;;19.75;17.25;;;;;22.94;49.88;100911.41;5016711;28;45710;-78
2021/07/23 03:33:05;;;;;;;;;20.50;17.25;;;;;23.09;50.25;100940.81;5015909;28;45624;-78
2021/07/23 03:35:31;;;;;;;;;19.50;17.50;;;;;23.02;49.48;100940.72;5016718;28;45662;-81
2021/07/23 03:37:56;;;;;;;;;18.00;17.25;;;;;22.97;49.64;100930.56;5016468;28;46571;-78
2021/07/23 03:40:21;;;;;;;;;14.00;14.00;;;;;23.05;49.70;100940.34;5016596;28;46100;-78
2021/07/23 03:42:47;;;;;;;;;17.25;16.50;;;;;22.96;50.04;100931.56;5016284;28;45714;-79
2021/07/23 03:48:34;;;;;;;;;17.50;17.00;;;;;22.89;50.63;100917.25;5022021;28;45547;-79
2021/07/23 03:50:59;;;;;;;;;16.50;15.25;;;;;22.89;50.54;100906.56;5021779;28;45960;-78
2021/07/23 03:53:26;;;;;;;;;17.00;16.00;;;;;22.87;51.16;100907.78;5019470;28;45478;-80
2021/07/23 03:55:51;;;;;;;;;16.50;16.50;;;;;22.82;51.45;100894.16;5016313;28;45619;-81
2021/07/23 03:58:16;;;;;;;;;17.00;15.00;;;;;22.71;51.60;100879.38;5016057;28;46471;-79
2021/07/23 04:04:04;;;;;;;;;16.00;14.50;;;;;22.71;51.59;100882.06;5005397;28;45813;-81
2021/07/23 04:06:29;;;;;;;;;22.25;17.50;;;;;22.67;51.41;100875.38;5017044;28;45633;-82
2021/07/23 04:08:55;;;;;;;;;19.50;18.25;;;;;22.64;51.14;100873.06;5016558;28;47031;-78
2021/07/23 04:11:27;;;;;;;;;17.25;15.25;;;;;22.63;51.34;100875.91;5016408;28;45434;-80
2021/07/23 04:13:52;;;;;;;;;15.50;14.00;;;;;22.62;51.61;100879.63;5017307;28;45795;-81
2021/07/23 04:16:18;;;;;;;;;23.25;20.75;;;;;22.57;51.09;100886.31;5016543;28;45832;-80
2021/07/23 04:18:43;;;;;;;;;17.50;17.50;;;;;22.55;51.34;100892.84;5016817;28;46348;-83
2021/07/23 04:21:11;;;;;;;;;19.75;17.00;;;;;22.48;51.92;100876.72;5019191;28;46154;-82
2021/07/23 04:23:36;;;;;;;;;17.50;17.25;;;;;22.51;52.14;100881.66;5021149;28;45646;-79
2021/07/23 04:26:01;;;;;;;;;20.00;17.75;;;;;22.52;51.47;100885.19;5021892;28;45586;-83
2021/07/23 04:28:27;;;;;;;;;21.00;18.75;;;;;22.51;52.18;100879.00;5022303;28;45610;-78
2021/07/23 04:34:14;;;;;;;;;17.50;15.75;;;;;22.44;51.84;100875.41;5026383;28;45703;-89
2021/07/23 04:36:39;;;;;;;;;19.50;17.50;;;;;22.43;52.11;100876.41;5030937;28;45489;-79
2021/07/23 04:39:05;;;;;;;;;18.00;17.00;;;;;22.40;52.24;100874.09;5006421;28;46462;-79
2021/07/23 04:41:31;;;;;;;;;20.25;17.00;;;;;22.29;52.50;100855.00;5001200;28;47267;-86
2021/07/23 04:43:56;;;;;;;;;18.25;17.25;;;;;22.37;51.83;100874.47;4999169;28;45688;-77
2021/07/23 04:46:22;;;;;;;;;19.25;17.75;;;;;22.37;52.42;100870.94;5018284;28;45684;-79
2021/07/23 04:48:47;;;;;;;;;16.25;15.75;;;;;22.37;52.23;100876.28;5016718;28;46472;-79
2021/07/23 04:51:12;;;;;;;;;18.75;18.25;;;;;22.31;52.34;100869.81;5016770;28;45907;-81
2021/07/23 04:53:38;;;;;;;;;20.50;19.25;;;;;22.32;52.33;100881.34;5017078;28;45637;-82
2021/07/23 04:56:05;;;;;;;;;17.75;17.00;;;;;22.31;52.37;100877.00;5017498;28;45643;-81
2021/07/23 04:58:31;;;;;;;;;19.25;18.00;;;;;22.30;52.53;100872.66;5016874;28;46421;-80
2021/07/23 05:04:18;;;;;;;;;19.25;18.00;;;;;22.19;52.67;100868.56;5015921;28;45959;-79
2021/07/23 05:06:44;;;;;;;;;18.00;17.75;;;;;22.19;52.62;100873.91;5018272;28;45910;-79
2021/07/23 05:09:09;;;;;;;;;18.25;16.75;;;;;22.28;52.59;100872.03;5018908;28;45551;-78
2021/07/23 05:11:35;;;;;;;;;21.00;18.75;;;;;22.15;52.48;100856.59;5020056;28;45633;-81
2021/07/23 05:14:01;;;;;;;;;18.75;12.50;;;;;22.27;53.01;100876.53;5020909;28;45553;-81
2021/07/23 05:19:48;;;;;;;;;19.00;18.25;;;;;;;;5019503;28;45700;-80
2021/07/23 05:22:14;;;;;;;;;18.75;16.75;;;;;22.28;52.80;100869.38;5017423;28;46253;-80
2021/07/23 05:24:39;;;;;;;;;18.75;16.75;;;;;22.28;53.22;100866.69;5016976;28;45590;-78
2021/07/23 05:27:05;;;;;;;;;21.25;19.75;;;;;22.25;52.92;100867.88;5016525;28;45587;-83
2021/07/23 05:29:30;;;;;;;;;22.25;19.25;;;;;22.24;53.01;100863.53;5016084;28;46601;-77
2021/07/23 05:31:55;;;;;;;;;23.25;18.25;;;;;22.21;52.97;100865.72;5016142;28;45715;-80
2021/07/23 05:34:22;;;;;;;;;18.25;17.75;;;;;22.23;52.88;100859.22;5015924;28;45565;-81
2021/07/23 05:36:47;;;;;;;;;19.75;19.25;;;;;22.23;52.81;100859.22;4997865;28;46028;-80
2021/07/23 05:39:13;;;;;;;;;18.00;17.75;;;;;22.15;53.48;100856.59;5015833;28;46382;-79
2021/07/23 05:41:38;;;;;;;;;21.25;19.00;;;;;22.14;52.88;100858.44;5017011;28;45646;-82
2021/07/23 05:44:04;;;;;;;;;22.00;20.25;;;;;22.18;52.91;100866.94;5014923;28;45630;-77
2021/07/23 05:49:52;;;;;;;;;24.50;21.75;;;;;22.18;52.92;100851.75;5014941;28;45946;-77
2021/07/23 05:52:17;;;;;;;;;23.25;20.50;;;;;22.28;52.99;100862.19;5014666;28;46444;-77
2021/07/23 05:54:42;;;;;;;;;22.75;19.75;;;;;22.30;52.99;100856.66;5015104;28;45509;-77
2021/07/23 05:57:08;;;;;;;;;22.75;21.25;;;;;22.30;53.12;100854.81;5014114;28;45808;-78
2021/07/23 05:59:33;;;;;;;;;21.25;20.75;;;;;22.27;53.52;100844.50;5014530;28;47395;-75
2021/07/23 06:01:59;;;;;;;;;22.25;22.00;;;;;22.35;52.99;100855.09;5015139;28;46979;-79
2021/07/23 06:04:24;;;;;;;;;20.00;19.00;;;;;22.35;53.43;100847.09;5015732;28;45568;-80
2021/07/23 06:06:50;;;;;;;;;19.75;19.75;;;;;22.37;52.66;100841.59;5017176;28;45673;-80
2021/07/23 06:09:16;;;;;;;;;20.50;19.75;;;;;22.35;52.89;100835.63;5017309;28;46325;-78
2021/07/23 06:11:42;;;;;;;;;21.00;19.75;;;;;22.39;53.16;100836.91;5016940;28;46226;-80
2021/07/23 06:14:08;;;;;;;;;21.50;19.75;;;;;22.30;52.77;100808.59;5016352;28;45681;-79
2021/07/23 06:19:55;;;;;;;;;23.00;18.50;;;;;22.39;53.07;100807.53;5015222;28;45579;-81
2021/07/23 06:22:20;;;;;;;;;28.00;22.00;;;;;22.44;52.83;100818.50;5015600;28;45942;-80
2021/07/23 06:24:45;;;;;;;;;22.50;22.00;;;;;22.47;52.92;100820.78;5015955;28;45706;-77
2021/07/23 06:27:11;;;;;;;;;24.25;20.50;;;;;22.47;53.40;100813.63;5015775;28;45865;-78
2021/07/23 06:29:36;;;;;;;;;25.25;22.75;;;;;22.49;53.23;100816.94;5015364;28;45711;-87
2021/07/23 06:35:29;;;;;;;;;20.50;18.25;;;;;22.54;53.09;100813.72;5014015;28;45554;-75
2021/07/23 06:37:55;;;;;;;;;20.75;19.00;;;;;22.58;52.83;100807.00;5014994;28;45744;-81
2021/07/23 06:40:20;;;;;;;;;23.50;21.75;;;;;22.56;52.30;100803.72;5015100;28;45730;-78
2021/07/23 06:42:46;;;;;;;;;21.25;20.00;;;;;22.64;52.75;100808.13;5015334;28;45556;-81
2021/07/23 06:45:12;;;;;;;;;24.00;23.00;;;;;22.59;52.46;100790.81;5015788;28;45460;-79
2021/07/23 06:47:40;;;;;;;;;22.25;22.00;;;;;22.74;52.65;100809.53;5015540;28;45521;-82
2021/07/23 06:50:06;;;;;;;;;24.25;23.00;;;;;22.77;52.77;100800.34;5000563;28;47645;-77
2021/07/23 06:52:31;;;;;;;;;22.25;21.00;;;;;22.80;52.16;100802.63;5016210;28;45747;-74
2021/07/23 06:54:57;;;;;;;;;21.50;20.25;;;;;22.83;52.47;100802.28;5015494;28;45712;-76
2021/07/23 06:57:22;;;;;;;;;24.50;22.75;;;;;22.71;51.79;100780.53;4996450;28;45860;-74
2021/07/23 06:59:49;;;;;;;;;22.75;20.75;;;;;22.96;51.82;100807.81;5014104;28;46754;-83
2021/07/23 07:05:36;;;;;;;;;26.50;21.75;;;;;23.05;51.91;100790.66;5002639;28;45844;-81
2021/07/23 07:08:02;;;;;;;;;19.75;18.75;;;;;23.09;51.82;100793.78;5014303;28;45766;-82
2021/07/23 07:10:28;;;;;;;;;22.00;20.25;;;;;23.13;52.02;100787.06;5017457;28;47114;-76
2021/07/23 07:12:57;;;;;;;;;26.25;22.75;;;;;23.17;52.05;100791.84;5018830;28;45989;-78
2021/07/23 07:15:23;;;;;;;;;20.25;18.75;;;;;23.14;52.04;100768.16;5017796;28;45666;-82
2021/07/23 07:17:55;;;;;;;;;19.25;18.75;;;;;23.24;51.99;100779.41;5017093;28;45612;-83
2021/07/23 07:20:20;;;;;;;;;22.00;22.00;;;;;23.25;51.29;100770.38;5016328;28;46741;-80
2021/07/23 07:22:45;;;;;;;;;22.75;22.00;;;;;23.30;51.31;100777.81;5017013;28;46071;-77
2021/07/23 07:25:11;;;;;;;;;26.75;23.50;;;;;23.34;51.52;100784.44;5016443;28;45750;-80
2021/07/23 07:27:36;;;;;;;;;22.75;20.75;;;;;23.37;51.18;100781.41;5017396;28;45449;-83
2021/07/23 07:30:02;;;;;;;;;22.50;21.25;;;;;23.36;51.10;100785.94;5017058;28;46586;-82
2021/07/23 07:35:50;;;;;;;;;24.00;21.75;;;;;23.44;51.45;100785.81;5020654;28;45738;-81
2021/07/23 07:38:17;;;;;;;;;25.00;24.25;;;;;23.45;51.41;100786.63;5020142;28;45564;-82
2021/07/23 07:40:43;;;;;;;;;22.75;21.75;;;;;23.54;50.78;100795.41;5018743;28;46640;-80
2021/07/23 07:43:08;;;;;;;;;22.00;20.75;;;;;23.54;51.30;100793.56;5019778;28;45551;-76
2021/07/23 07:45:36;;;;;;;;;26.75;23.25;;;;;23.58;51.03;100788.66;5019763;28;45575;-79
2021/07/23 07:48:03;;;;;;;;;23.25;22.50;;;;;23.54;51.37;100774.81;5017684;28;45840;-82
2021/07/23 07:50:29;;;;;;;;;22.75;22.00;;;;;23.62;51.22;100785.44;5016996;28;46488;-82
2021/07/23 07:52:55;;;;;;;;;23.50;23.00;;;;;23.62;51.03;100777.41;5017581;28;46248;-77
2021/07/23 07:55:20;;;;;;;;;24.75;23.00;;;;;23.60;50.50;100763.38;5017683;28;45607;-81
2021/07/23 07:57:45;;;;;;;;;23.50;21.50;;;;;23.71;50.73;100778.09;4999310;28;45961;-86
2021/07/23 08:00:12;;;;;;;;;22.25;20.75;;;;;23.78;50.54;100781.69;5016433;28;46580;-81
2021/07/23 08:06:04;;;;;;;;;22.50;20.50;;;;;23.89;50.52;100775.81;5011428;28;45963;-82
2021/07/23 08:08:29;;;;;;;;;21.25;18.75;;;;;23.96;50.01;100771.38;5016004;28;45637;-74
2021/07/23 08:10:55;;;;;;;;;20.25;19.00;;;;;23.89;50.44;100751.72;5016586;28;46678;-74
2021/07/23 08:13:20;;;;;;;;;28.50;22.25;;;;;24.07;49.85;100768.16;5016324;28;46239;-77
2021/07/23 08:15:46;;;;;;;;;21.75;21.75;;;;;24.04;49.95;100752.47;5017080;28;45562;-77
2021/07/23 08:18:13;;;;;;;;;24.50;22.50;;;;;24.03;50.29;100740.09;5018329;28;45762;-84
2021/07/23 08:20:38;;;;;;;;;23.75;22.25;;;;;24.16;50.05;100747.44;5000976;28;47703;-80
2021/07/23 08:23:05;;;;;;;;;24.00;21.00;;;;;24.27;50.16;100756.81;5001966;28;45707;-78
2021/07/23 08:25:31;;;;;;;;;23.25;22.50;;;;;24.24;49.66;100733.91;5020302;28;45782;-80
2021/07/23 08:27:57;;;;;;;;;23.25;20.75;;;;;24.33;49.88;100739.97;5021295;28;45663;-84
2021/07/23 08:30:22;;;;;;;;;19.00;18.50;;;;;24.45;49.88;100749.13;5017327;28;45577;-78
2021/07/23 08:36:10;;;;;;;;;22.25;22.00;;;;;24.54;49.36;100747.94;5014931;28;45679;-84
2021/07/23 08:38:35;;;;;;;;;23.00;21.00;;;;;24.53;49.58;100743.59;4997346;28;45636;-78
2021/07/23 08:41:02;;;;;;;;;18.50;18.50;;;;;24.67;49.36;100748.84;5015231;28;45662;-83
2021/07/23 08:43:27;;;;;;;;;23.75;22.00;;;;;24.74;49.14;100740.84;5015282;28;46188;-80
2021/07/23 08:45:53;;;;;;;;;22.75;21.75;;;;;24.83;48.99;100739.63;5015161;28;45645;-82
2021/07/23 08:48:18;;;;;;;;;21.25;19.50;;;;;24.88;48.84;100729.22;5015141;28;45696;-84
2021/07/23 08:50:44;;;;;;;;;22.00;21.25;;;;;24.95;48.82;100730.03;5014925;28;46352;-78
2021/07/23 08:53:09;;;;;;;;;25.25;20.00;;;;;25.01;48.40;100731.09;5014736;28;45655;-83
2021/07/23 08:55:36;;;;;;;;;22.50;20.75;;;;;25.05;48.34;100725.13;5014818;28;45500;-82
2021/07/23 08:58:01;;;;;;;;;21.00;20.25;;;;;25.19;48.58;100733.25;5014850;28;45971;-82
2021/07/23 09:00:27;;;;;;;;;20.25;19.25;;;;;25.27;48.78;100733.06;5013635;28;46320;-80
2021/07/23 09:06:16;;;;;;;;;20.00;19.50;;;;;25.46;47.75;100722.41;5010739;28;45867;-80
2021/07/23 09:08:48;;;;;;;;;20.50;19.75;;;;;25.53;47.77;100719.72;5013999;28;45677;-84
2021/07/23 09:11:13;;;;;;;;;23.00;21.50;;;;;25.61;47.63;100713.34;5014236;28;46914;-83
2021/07/23 09:13:42;;;;;;;;;22.50;20.75;;;;;25.71;47.51;100717.28;5014246;28;47238;-81
2021/07/23 09:16:26;;;;;;;;;23.00;20.00;;;;;25.80;47.12;100721.41;5016892;28;45641;-84
2021/07/23 09:19:09;;;;;;;;;20.50;19.75;;;;;25.89;47.18;100714.84;4999631;28;45547;-77
2021/07/23 09:21:37;;;;;;;;;16.75;16.75;;;;;25.97;47.19;100703.03;5016825;28;46332;-79
2021/07/23 09:24:07;;;;;;;;;20.75;19.75;;;;;25.99;47.05;100697.47;5014560;28;47155;-81
2021/07/23 09:26:42;;;;;;;;;21.00;20.25;;;;;26.13;46.79;100697.25;5013577;28;45589;-82
2021/07/23 09:29:08;;;;;;;;;19.00;18.00;;;;;26.18;46.24;100697.44;5013128;28;45640;-82
2021/07/23 09:31:34;;;;;;;;;18.75;17.50;;;;;26.27;46.13;100695.41;5011653;28;45663;-81
2021/07/23 09:34:00;;;;;;;;;18.00;17.00;;;;;26.26;46.23;100678.47;5016444;28;45937;-79
2021/07/23 09:36:26;;;;;;;;;19.25;18.75;;;;;26.45;46.19;100689.41;5015669;28;45578;-75
2021/07/23 09:39:01;;;;;;;;;19.25;18.00;;;;;26.53;46.10;100700.75;5017029;28;45773;-81
2021/07/23 09:41:27;;;;;;;;;18.75;16.00;;;;;26.50;45.82;100668.09;5018867;28;45977;-82
2021/07/23 09:44:04;;;;;;;;;17.75;17.75;;;;;26.64;45.63;100678.59;5022866;28;46177;-77
2021/07/23 09:46:33;;;;;;;;;19.00;17.75;;;;;26.76;45.84;100689.50;5019024;28;45687;-78
2021/07/23 09:49:01;;;;;;;;;20.25;19.50;;;;;26.83;45.32;100681.41;5022743;28;45897;-81
2021/07/23 09:51:26;;;;;;;;;18.00;17.00;;;;;26.90;44.79;100668.78;5023040;28;46511;-76
2021/07/23 09:53:53;;;;;;;;;18.75;17.25;;;;;26.88;44.78;100657.44;5005056;28;47627;-80
2021/07/23 09:56:22;;;;;;;;;18.75;17.75;;;;;27.01;44.98;100654.66;5026313;28;45642;-77
2021/07/23 09:58:54;;;;;;;;;18.25;18.00;;;;;27.07;44.06;100654.63;5028134;28;45662;-76
2021/07/23 10:07:44;;;;;;;;;27.00;21.75;;;;;27.27;43.81;100630.28;5015452;28;45608;-78
2021/07/23 10:10:15;;;;;;;;;19.00;18.50;;;;;27.31;43.79;100625.31;5025235;28;45861;-80
2021/07/23 10:12:44;;;;;;;;;18.50;17.75;;;;;27.34;43.96;100612.22;5025488;28;45559;-81
2021/07/23 10:15:11;;;;;;;;;19.25;17.75;;;;;27.32;43.05;100608.09;5022230;28;45502;-79
2021/07/23 10:17:36;;;;;;;;;18.25;16.25;;;;;27.43;43.07;100610.09;5023534;28;45670;-76
2021/07/23 10:20:03;;;;;;;;;20.50;18.75;;;;;27.48;43.65;100615.63;5006907;28;45588;-81
2021/07/23 10:22:29;;;;;;;;;19.00;18.00;;;;;27.50;42.64;100600.94;5020701;28;45638;-78
2021/07/23 10:24:56;;;;;;;;;20.00;18.00;;;;;27.53;42.96;100595.13;5025548;28;45595;-74
2021/07/23 10:27:26;;;;;;;;;19.00;17.25;;;;;27.59;42.62;100600.66;5027280;28;45544;-81
2021/07/23 10:29:53;;;;;;;;;17.00;16.75;;;;;27.62;42.72;100590.28;5026182;28;45536;-77
2021/07/23 10:32:25;;;;;;;;;19.25;18.00;;;;;27.65;42.73;100579.06;5022002;28;45763;-75
2021/07/23 10:34:58;;;;;;;;;21.00;20.25;;;;;27.66;42.71;100569.94;5023846;28;45471;-74
2021/07/23 10:37:30;;;;;;;;;18.00;16.50;;;;;27.71;42.92;100572.81;5023710;28;45845;-77
2021/07/23 10:40:08;;;;;;;;;20.75;19.75;;;;;27.74;42.62;100574.25;5025729;28;45730;-84
2021/07/23 10:42:35;;;;;;;;;19.75;19.50;;;;;27.73;43.06;100569.91;5023699;28;45633;-82
2021/07/23 10:45:04;;;;;;;;;18.75;17.75;;;;;27.77;42.85;100568.41;5029658;28;45401;-84
2021/07/23 10:47:56;;;;;;;;;17.75;16.75;;;;;27.78;42.56;100561.97;5032180;28;45039;-75
2021/07/23 10:50:23;;;;;;;;;19.00;18.50;;;;;27.78;42.76;100548.50;5024578;28;45789;-78
2021/07/23 10:52:48;;;;;;;;;21.50;19.75;;;;;27.78;42.97;100545.81;5028688;28;46355;-75
2021/07/23 10:55:25;;;;;;;;;19.25;18.25;;;;;27.81;42.97;100543.50;5029882;28;47990;-81
2021/07/23 10:58:09;;;;;;;;;19.25;18.25;;;;;27.82;43.05;100537.06;5006545;28;45661;-84
2021/07/23 11:00:51;;;;;;;;;20.50;19.50;;;;;27.83;42.90;100538.72;5025752;28;45864;-77
2021/07/23 11:03:38;;;;;;;;;21.00;19.75;;;;;27.85;42.75;100527.72;5020974;28;47298;-80
2021/07/23 11:06:20;;;;;;;;;21.00;21.00;;;;;27.86;42.26;100519.41;5018985;28;47032;-82
2021/07/23 11:08:53;;;;;;;;;21.00;20.00;;;;;27.86;42.58;100516.72;5019933;28;45638;-74
2021/07/23 11:11:21;;;;;;;;;18.25;18.00;;;;;27.91;42.79;100516.84;5030553;28;45500;-76
2021/07/23 11:13:47;;;;;;;;;18.50;16.50;;;;;27.93;42.42;100509.38;5033237;28;45793;-82
2021/07/23 11:16:17;;;;;;;;;18.50;17.50;;;;;27.71;42.40;100458.88;5031349;28;45981;-78
2021/07/23 11:18:53;;;;;;;;;19.00;17.75;;;;;28.03;41.93;100500.78;5019618;28;45465;-84
2021/07/23 11:21:18;;;;;;;;;20.50;18.75;;;;;28.07;42.05;100482.31;5019148;28;46041;-83
2021/07/23 11:23:46;;;;;;;;;19.50;18.50;;;;;28.13;41.72;100489.47;5017954;28;46921;-82
2021/07/23 11:26:13;;;;;;;;;17.75;17.50;;;;;28.10;41.20;100488.06;5018124;28;45564;-80
2021/07/23 11:28:49;;;;;;;;;17.00;16.75;;;;;28.22;41.70;100496.22;5020428;28;45645;-79
2021/07/23 11:31:43;;;;;;;;;18.25;17.00;;;;;28.26;41.63;100490.16;5019369;28;45682;-84
2021/07/23 11:34:26;;;;;;;;;15.00;15.00;;;;;28.35;41.46;100491.47;5015852;28;45692;-81
2021/07/23 11:36:52;;;;;;;;;16.25;15.75;;;;;28.38;40.76;100474.03;5020464;28;47103;-79
2021/07/23 11:39:24;;;;;;;;;17.50;17.00;;;;;28.46;40.69;100478.25;5004310;28;46230;-82
2021/07/23 11:42:03;;;;;;;;;18.00;16.50;;;;;28.51;40.41;100475.69;5021822;28;45622;-85
2021/07/23 11:44:29;;;;;;;;;17.75;17.00;;;;;28.54;39.88;100467.16;5017697;28;45651;-77
2021/07/23 11:46:55;;;;;;;;;17.25;17.25;;;;;28.59;40.03;100464.59;5016228;28;46255;-77
2021/07/23 11:49:21;;;;;;;;;18.50;15.50;;;;;28.65;39.92;100461.81;5015729;28;45737;-77
2021/07/23 11:51:47;;;;;;;;;16.00;15.00;;;;;28.73;40.24;100455.28;5015344;28;45483;-73
2021/07/23 11:54:20;;;;;;;;;18.00;16.00;;;;;28.78;39.82;100434.66;4996028;28;48708;-78
2021/07/23 11:56:45;;;;;;;;;14.00;13.50;;;;;28.91;40.15;100438.19;4997171;28;47517;-77
2021/07/23 11:59:11;;;;;;;;;16.00;15.25;;;;;29.00;39.53;100439.47;5014368;28;45778;-79
2021/07/23 12:01:38;;;;;;;;;14.25;14.25;;;;;29.09;40.03;100446.19;5015690;28;45707;-76
2021/07/23 12:04:05;;;;;;;;;15.75;15.25;;;;;29.13;39.55;100439.28;5014566;28;47321;-79
2021/07/23 12:06:31;;;;;;;;;17.50;17.00;;;;;29.16;39.42;100439.59;5015787;28;46700;-78
2021/07/23 12:09:16;;;;;;;;;16.00;14.50;;;;;29.25;39.00;100437.41;4997341;28;45891;-72
2021/07/23 12:11:43;;;;;;;;;14.75;14.25;;;;;29.26;39.25;100430.91;5015391;28;45552;-76
2021/07/23 12:14:10;;;;;;;;;13.50;13.00;;;;;29.28;39.09;100426.13;5013576;28;48867;-79
2021/07/23 12:16:37;;;;;;;;;14.25;14.25;;;;;29.31;38.75;100428.34;5014970;28;46140;-77
2021/07/23 12:19:08;;;;;;;;;16.50;16.50;;;;;29.36;38.50;100423.09;4997317;28;45779;-78
2021/07/23 12:21:35;;;;;;;;;17.50;17.25;;;;;29.37;38.33;100416.63;4997515;28;46002;-77
2021/07/23 12:24:08;;;;;;;;;15.50;14.50;;;;;29.46;38.51;100406.28;5015259;28;45782;-78
2021/07/23 12:26:41;;;;;;;;;14.00;13.75;;;;;29.50;38.48;100405.56;5013698;28;46670;-77